Language: 


Des rapports , des résumés tant et plus, au choix de chacun....


Données Historiques de Météogheer
Journalier Rapport pour Janvier 14, 2017 Unitée:  Les deux    Impériale   Métrique
Suivant Jour »
Journalier Hebdomadaire Mensuel Annuel Sur mesure
  Max: Min: Moyenne:
Température: 42.8 °F /  6.0 °C 32 °F /  0.0 °C 37 °F /  2.8 °C
Point de rosée: 38.3 °F /  3.5 °C 27.1 °F /  -2.7 °C 31.1 °F /  -0.5 °C
Humidité: 94% 0% 79%
Vent: 12.5mph /  20.1km/h - 4.7mph /  7.6km/h
Rafales: 17.7mph /  28.5km/h - -
Vent- - West
Pression: 30.1 in /  1018.8 hPa 0 in /  0.0 hPa -
Pluie: 0 in /  0.0 mm    
Historical Graphs
 
 
Données tabulaires pour Janvier 14, 2017
Heure Température Point de rosée Pression Vent Vent Rafales Humidité Pluie Taux (Horaire) Conditions
00:01 39.7 °F /  4.3 °C 30.4 °F /  -0.9 °C 29.9in /  1011.1hPa North 4.7mph /  7.6km/h 17.7mph /  28.5km/h 69% 0in /  0.0mm
00:06 39.7 °F /  4.3 °C 30.4 °F /  -0.9 °C 29.9in /  1011.1hPa NNE 9.4mph /  15.1km/h 13.2mph /  21.2km/h 69% 0in /  0.0mm
00:11 39.6 °F /  4.2 °C 30.6 °F /  -0.8 °C 29.9in /  1011.1hPa North 8.5mph /  13.7km/h 15.2mph /  24.5km/h 70% 0in /  0.0mm
00:16 39.6 °F /  4.2 °C 30.6 °F /  -0.8 °C 29.9in /  1011.1hPa NW 7.8mph /  12.6km/h 15.2mph /  24.5km/h 70% 0in /  0.0mm
00:21 39.4 °F /  4.1 °C 30.4 °F /  -0.9 °C 29.9in /  1011.1hPa North 8.7mph /  14.0km/h 11.2mph /  18.0km/h 70% 0in /  0.0mm
00:26 39.4 °F /  4.1 °C 30.4 °F /  -0.9 °C 29.9in /  1011.1hPa NW 4.3mph /  6.9km/h 11.4mph /  18.3km/h 70% 0in /  0.0mm
00:31 39.2 °F /  4.0 °C 30.6 °F /  -0.8 °C 29.9in /  1011.1hPa North 4mph /  6.4km/h 11.4mph /  18.3km/h 71% 0in /  0.0mm
00:36 39.2 °F /  4.0 °C 30.6 °F /  -0.8 °C 29.9in /  1011.1hPa NNW 7.6mph /  12.2km/h 11.4mph /  18.3km/h 71% 0in /  0.0mm
00:41 39.2 °F /  4.0 °C 30.9 °F /  -0.6 °C 29.9in /  1012.1hPa West 6.3mph /  10.1km/h 8.1mph /  13.0km/h 72% 0in /  0.0mm
00:46 39 °F /  3.9 °C 30.7 °F /  -0.7 °C 29.9in /  1012.1hPa NW 4mph /  6.4km/h 11mph /  17.7km/h 72% 0in /  0.0mm
00:51 39 °F /  3.9 °C 31.1 °F /  -0.5 °C 29.9in /  1012.1hPa WSW 4.3mph /  6.9km/h 11mph /  17.7km/h 73% 0in /  0.0mm
00:56 39 °F /  3.9 °C 31.1 °F /  -0.5 °C 29.9in /  1012.1hPa WNW 5.6mph /  9.0km/h 10.3mph /  16.6km/h 73% 0in /  0.0mm
01:01 38.8 °F /  3.8 °C 30.9 °F /  -0.6 °C 29.9in /  1012.1hPa NNW 4.3mph /  6.9km/h 11mph /  17.7km/h 73% 0in /  0.0mm
01:06 38.8 °F /  3.8 °C 30.9 °F /  -0.6 °C 29.9in /  1012.1hPa NNE 5.6mph /  9.0km/h 12.5mph /  20.1km/h 73% 0in /  0.0mm
01:11 38.8 °F /  3.8 °C 30.9 °F /  -0.6 °C 29.9in /  1013.1hPa WNW 7.4mph /  11.9km/h 12.5mph /  20.1km/h 73% 0in /  0.0mm
01:16 38.7 °F /  3.7 °C 30.7 °F /  -0.7 °C 29.9in /  1013.1hPa NNW 9.2mph /  14.8km/h 10.5mph /  16.9km/h 73% 0in /  0.0mm
01:21 38.7 °F /  3.7 °C 30.7 °F /  -0.7 °C 29.9in /  1013.1hPa North 6mph /  9.7km/h 12.5mph /  20.1km/h 73% 0in /  0.0mm
01:26 38.5 °F /  3.6 °C 30.6 °F /  -0.8 °C 29.9in /  1013.1hPa North 3.8mph /  6.1km/h 13.4mph /  21.6km/h 73% 0in /  0.0mm
01:31 38.5 °F /  3.6 °C 30.4 °F /  -0.9 °C 29.9in /  1013.1hPa North 4.9mph /  7.9km/h 13.4mph /  21.6km/h 73% 0in /  0.0mm
01:36 38.1 °F /  3.4 °C 30.4 °F /  -0.9 °C 29.9in /  1013.1hPa NNE 5.6mph /  9.0km/h 12.3mph /  19.8km/h 73% 0in /  0.0mm
01:41 37.9 °F /  3.3 °C 30 °F /  -1.1 °C 29.9in /  1013.1hPa North 8.1mph /  13.0km/h 12.3mph /  19.8km/h 73% 0in /  0.0mm
01:46 37.8 °F /  3.2 °C 29.8 °F /  -1.2 °C 29.9in /  1013.1hPa NNE 7.2mph /  11.6km/h 10.5mph /  16.9km/h 73% 0in /  0.0mm
01:51 37.8 °F /  3.2 °C 29.8 °F /  -1.2 °C 29.9in /  1013.1hPa WNW 6mph /  9.7km/h 8.7mph /  14.0km/h 73% 0in /  0.0mm
01:56 37.6 °F /  3.1 °C 30 °F /  -1.1 °C 29.9in /  1013.1hPa WNW 3.6mph /  5.8km/h 8.1mph /  13.0km/h 74% 0in /  0.0mm
02:02 32 °F /  0.0 °C 30 °F /  -1.1 °C 0in /  0.0hPa NNW 12.1mph /  19.5km/h 12.1mph /  19.5km/h 0% 0in /  0.0mm
02:07 37.6 °F /  3.1 °C 30.4 °F /  -0.9 °C 29.9in /  1013.1hPa NW 7.4mph /  11.9km/h 12.1mph /  19.5km/h 75% 0in /  0.0mm
02:12 37.6 °F /  3.1 °C 30.4 °F /  -0.9 °C 29.9in /  1013.1hPa WNW 8.5mph /  13.7km/h 10.5mph /  16.9km/h 75% 0in /  0.0mm
02:17 37.6 °F /  3.1 °C 30.4 °F /  -0.9 °C 29.9in /  1013.1hPa NNW 4.7mph /  7.6km/h 8.5mph /  13.7km/h 75% 0in /  0.0mm
02:22 37.6 °F /  3.1 °C 30.4 °F /  -0.9 °C 29.9in /  1014.1hPa NE 6.7mph /  10.8km/h 9.4mph /  15.1km/h 75% 0in /  0.0mm
02:27 37.6 °F /  3.1 °C 30.4 °F /  -0.9 °C 29.9in /  1014.1hPa WNW 5.8mph /  9.3km/h 9.4mph /  15.1km/h 75% 0in /  0.0mm
02:32 37.6 °F /  3.1 °C 30.4 °F /  -0.9 °C 29.9in /  1014.1hPa NW 4.9mph /  7.9km/h 9.6mph /  15.4km/h 75% 0in /  0.0mm
02:37 37.6 °F /  3.1 °C 29.8 °F /  -1.2 °C 29.9in /  1013.1hPa North 6.5mph /  10.5km/h 9.6mph /  15.4km/h 74% 0in /  0.0mm
02:42 37.6 °F /  3.1 °C 29.8 °F /  -1.2 °C 29.9in /  1013.1hPa SSW 5.6mph /  9.0km/h 10.5mph /  16.9km/h 74% 0in /  0.0mm
02:47 37.6 °F /  3.1 °C 29.8 °F /  -1.2 °C 29.9in /  1013.1hPa WNW 2.2mph /  3.5km/h 10.5mph /  16.9km/h 74% 0in /  0.0mm
02:52 37.6 °F /  3.1 °C 29.8 °F /  -1.2 °C 29.9in /  1012.1hPa WNW 3.6mph /  5.8km/h 9.8mph /  15.8km/h 74% 0in /  0.0mm
02:57 37.2 °F /  2.9 °C 29.8 °F /  -1.2 °C 29.9in /  1012.1hPa NW 3.6mph /  5.8km/h 9.2mph /  14.8km/h 74% 0in /  0.0mm
03:02 37.6 °F /  3.1 °C 29.8 °F /  -1.2 °C 29.9in /  1012.1hPa West 5.6mph /  9.0km/h 10.3mph /  16.6km/h 74% 0in /  0.0mm
03:07 37.2 °F /  2.9 °C 29.5 °F /  -1.4 °C 29.9in /  1013.1hPa NNW 4.3mph /  6.9km/h 10.3mph /  16.6km/h 73% 0in /  0.0mm
03:12 37.2 °F /  2.9 °C 29.5 °F /  -1.4 °C 29.9in /  1013.1hPa NE 4mph /  6.4km/h 12.1mph /  19.5km/h 73% 0in /  0.0mm
03:17 37 °F /  2.8 °C 29.7 °F /  -1.3 °C 29.9in /  1013.1hPa NNW 4.7mph /  7.6km/h 12.1mph /  19.5km/h 74% 0in /  0.0mm
03:22 37 °F /  2.8 °C 29.3 °F /  -1.5 °C 29.9in /  1014.1hPa North 4.9mph /  7.9km/h 9.8mph /  15.8km/h 73% 0in /  0.0mm
03:27 36.9 °F /  2.7 °C 29.1 °F /  -1.6 °C 29.9in /  1014.1hPa WNW 2.7mph /  4.3km/h 8.1mph /  13.0km/h 73% 0in /  0.0mm
03:32 36.9 °F /  2.7 °C 29.5 °F /  -1.4 °C 29.9in /  1014.1hPa WNW 3.8mph /  6.1km/h 8.9mph /  14.3km/h 74% 0in /  0.0mm
03:37 36.9 °F /  2.7 °C 29.5 °F /  -1.4 °C 29.9in /  1014.1hPa WNW 2.2mph /  3.5km/h 8.9mph /  14.3km/h 74% 0in /  0.0mm
03:42 36.9 °F /  2.7 °C 29.5 °F /  -1.4 °C 29.9in /  1014.1hPa North 6.3mph /  10.1km/h 10.3mph /  16.6km/h 74% 0in /  0.0mm
03:47 36.9 °F /  2.7 °C 29.5 °F /  -1.4 °C 29.9in /  1014.1hPa North 5.6mph /  9.0km/h 10.7mph /  17.2km/h 74% 0in /  0.0mm
03:52 36.9 °F /  2.7 °C 29.5 °F /  -1.4 °C 29.9in /  1014.1hPa NE 0.9mph /  1.4km/h 11mph /  17.7km/h 74% 0in /  0.0mm
03:57 36.9 °F /  2.7 °C 29.5 °F /  -1.4 °C 29.9in /  1014.1hPa NW 7.4mph /  11.9km/h 11mph /  17.7km/h 74% 0in /  0.0mm
04:02 36.9 °F /  2.7 °C 28.9 °F /  -1.7 °C 29.9in /  1014.1hPa West 7.8mph /  12.6km/h 8.5mph /  13.7km/h 73% 0in /  0.0mm
04:07 36.9 °F /  2.7 °C 28.9 °F /  -1.7 °C 29.9in /  1014.1hPa WNW 8.7mph /  14.0km/h 8.7mph /  14.0km/h 73% 0in /  0.0mm
04:12 36.9 °F /  2.7 °C 28.6 °F /  -1.9 °C 29.9in /  1014.1hPa WNW 5.4mph /  8.7km/h 9.6mph /  15.4km/h 72% 0in /  0.0mm
04:17 36.7 °F /  2.6 °C 28.4 °F /  -2.0 °C 29.9in /  1014.1hPa North 6.5mph /  10.5km/h 9.6mph /  15.4km/h 72% 0in /  0.0mm
04:22 36.7 °F /  2.6 °C 28.8 °F /  -1.8 °C 29.9in /  1014.1hPa West 5.4mph /  8.7km/h 12.3mph /  19.8km/h 73% 0in /  0.0mm
04:27 36.3 °F /  2.4 °C 28.2 °F /  -2.1 °C 29.9in /  1014.1hPa North 7.6mph /  12.2km/h 12.3mph /  19.8km/h 72% 0in /  0.0mm
04:32 36.1 °F /  2.3 °C 28.4 °F /  -2.0 °C 29.9in /  1014.1hPa West 5.8mph /  9.3km/h 8.9mph /  14.3km/h 73% 0in /  0.0mm
04:33 36.1 °F /  2.3 °C 28.4 °F /  -2.0 °C 29.9in /  1014.1hPa NNW 2.9mph /  4.7km/h 8.9mph /  14.3km/h 73% 0in /  0.0mm
04:38 36.1 °F /  2.3 °C 28.4 °F /  -2.0 °C 29.9in /  1014.1hPa West 3.8mph /  6.1km/h 9.4mph /  15.1km/h 73% 0in /  0.0mm
04:43 36.1 °F /  2.3 °C 28.2 °F /  -2.1 °C 29.9in /  1014.1hPa West 4.7mph /  7.6km/h 9.4mph /  15.1km/h 73% 0in /  0.0mm
04:48 36 °F /  2.2 °C 28 °F /  -2.2 °C 29.9in /  1014.1hPa West 5.6mph /  9.0km/h 8.7mph /  14.0km/h 73% 0in /  0.0mm
04:53 35.8 °F /  2.1 °C 27.9 °F /  -2.3 °C 29.9in /  1014.1hPa West 4mph /  6.4km/h 10.7mph /  17.2km/h 73% 0in /  0.0mm
04:58 35.4 °F /  1.9 °C 27.7 °F /  -2.4 °C 29.9in /  1014.1hPa West 0.9mph /  1.4km/h 10.7mph /  17.2km/h 73% 0in /  0.0mm
05:03 35.1 °F /  1.7 °C 27.5 °F /  -2.5 °C 29.9in /  1014.1hPa West 3.1mph /  5.0km/h 6mph /  9.7km/h 74% 0in /  0.0mm
05:08 35.1 °F /  1.7 °C 27.5 °F /  -2.5 °C 29.9in /  1014.1hPa NW 5.6mph /  9.0km/h 7.8mph /  12.6km/h 74% 0in /  0.0mm
05:13 35.1 °F /  1.7 °C 27.5 °F /  -2.5 °C 29.9in /  1014.1hPa WNW 5.6mph /  9.0km/h 7.8mph /  12.6km/h 74% 0in /  0.0mm
05:18 35.2 °F /  1.8 °C 28 °F /  -2.2 °C 29.9in /  1014.1hPa West 7.8mph /  12.6km/h 7.8mph /  12.6km/h 75% 0in /  0.0mm
05:23 35.4 °F /  1.9 °C 28.2 °F /  -2.1 °C 29.9in /  1014.1hPa WSW 3.6mph /  5.8km/h 8.7mph /  14.0km/h 75% 0in /  0.0mm
05:28 35.4 °F /  1.9 °C 27.9 °F /  -2.3 °C 29.9in /  1014.1hPa West 4.9mph /  7.9km/h 8.7mph /  14.0km/h 74% 0in /  0.0mm
05:33 35.2 °F /  1.8 °C 27.7 °F /  -2.4 °C 29.9in /  1014.1hPa NW 3.1mph /  5.0km/h 7.6mph /  12.2km/h 74% 0in /  0.0mm
05:38 35.2 °F /  1.8 °C 28 °F /  -2.2 °C 29.9in /  1014.1hPa North 5.4mph /  8.7km/h 7.6mph /  12.2km/h 75% 0in /  0.0mm
05:43 35.4 °F /  1.9 °C 28.2 °F /  -2.1 °C 29.9in /  1014.1hPa WNW 1.1mph /  1.8km/h 6.7mph /  10.8km/h 75% 0in /  0.0mm
05:48 35.4 °F /  1.9 °C 28.2 °F /  -2.1 °C 29.9in /  1014.1hPa WSW 3.1mph /  5.0km/h 8.1mph /  13.0km/h 75% 0in /  0.0mm
05:53 35.4 °F /  1.9 °C 28.2 °F /  -2.1 °C 30in /  1015.1hPa West 4.3mph /  6.9km/h 10.1mph /  16.3km/h 75% 0in /  0.0mm
05:58 35.4 °F /  1.9 °C 28.2 °F /  -2.1 °C 30in /  1015.1hPa WNW 2mph /  3.2km/h 10.1mph /  16.3km/h 75% 0in /  0.0mm
06:03 35.2 °F /  1.8 °C 28.4 °F /  -2.0 °C 30in /  1015.1hPa NW 6.5mph /  10.5km/h 8.7mph /  14.0km/h 76% 0in /  0.0mm
06:08 35.2 °F /  1.8 °C 28.4 °F /  -2.0 °C 30in /  1015.1hPa ENE 4.3mph /  6.9km/h 8.7mph /  14.0km/h 76% 0in /  0.0mm
06:13 35.1 °F /  1.7 °C 28.2 °F /  -2.1 °C 30in /  1015.1hPa WNW 4mph /  6.4km/h 6.5mph /  10.5km/h 76% 0in /  0.0mm
06:18 34.9 °F /  1.6 °C 28 °F /  -2.2 °C 30in /  1015.1hPa WNW 3.4mph /  5.5km/h 6.3mph /  10.1km/h 76% 0in /  0.0mm
06:23 34.9 °F /  1.6 °C 28 °F /  -2.2 °C 30in /  1015.1hPa WSW 3.8mph /  6.1km/h 5.8mph /  9.3km/h 76% 0in /  0.0mm
06:28 34.5 °F /  1.4 °C 27.9 °F /  -2.3 °C 30in /  1015.1hPa West 2.9mph /  4.7km/h 5.6mph /  9.0km/h 76% 0in /  0.0mm
06:33 34.5 °F /  1.4 °C 27.9 °F /  -2.3 °C 30in /  1015.1hPa NW 6.5mph /  10.5km/h 7.2mph /  11.6km/h 76% 0in /  0.0mm
06:38 34.5 °F /  1.4 °C 28 °F /  -2.2 °C 30in /  1015.1hPa WNW 5.6mph /  9.0km/h 7.2mph /  11.6km/h 77% 0in /  0.0mm
06:43 34.5 °F /  1.4 °C 28 °F /  -2.2 °C 30in /  1015.1hPa WNW 6.5mph /  10.5km/h 7.2mph /  11.6km/h 77% 0in /  0.0mm
06:49 34.3 °F /  1.3 °C 27.9 °F /  -2.3 °C 30in /  1015.1hPa West 3.1mph /  5.0km/h 7.2mph /  11.6km/h 77% 0in /  0.0mm
06:54 34.3 °F /  1.3 °C 27.9 °F /  -2.3 °C 30in /  1015.1hPa WNW 2.9mph /  4.7km/h 6.3mph /  10.1km/h 77% 0in /  0.0mm
06:59 34.2 °F /  1.2 °C 27.7 °F /  -2.4 °C 30in /  1015.1hPa West 4.3mph /  6.9km/h 5.6mph /  9.0km/h 77% 0in /  0.0mm
07:04 34 °F /  1.1 °C 27.5 °F /  -2.5 °C 30in /  1015.1hPa West 3.4mph /  5.5km/h 7.2mph /  11.6km/h 77% 0in /  0.0mm
07:09 33.8 °F /  1.0 °C 27.3 °F /  -2.6 °C 30in /  1015.1hPa West 1.3mph /  2.1km/h 7.2mph /  11.6km/h 77% 0in /  0.0mm
07:14 33.8 °F /  1.0 °C 27.7 °F /  -2.4 °C 30in /  1015.1hPa Calm   5.8mph /  9.3km/h 78% 0in /  0.0mm
07:19 33.6 °F /  0.9 °C 27.5 °F /  -2.5 °C 30in /  1015.1hPa WSW 4.3mph /  6.9km/h 5.8mph /  9.3km/h 78% 0in /  0.0mm
07:24 33.3 °F /  0.7 °C 27.1 °F /  -2.7 °C 30in /  1015.1hPa West 4.7mph /  7.6km/h 6mph /  9.7km/h 78% 0in /  0.0mm
07:29 33.1 °F /  0.6 °C 27.3 °F /  -2.6 °C 30in /  1015.1hPa West 5.4mph /  8.7km/h 7.6mph /  12.2km/h 79% 0in /  0.0mm
07:34 33.1 °F /  0.6 °C 27.3 °F /  -2.6 °C 30in /  1015.1hPa SW 2.9mph /  4.7km/h 8.1mph /  13.0km/h 79% 0in /  0.0mm
07:39 33.1 °F /  0.6 °C 27.7 °F /  -2.4 °C 30in /  1015.1hPa West 3.1mph /  5.0km/h 8.1mph /  13.0km/h 80% 0in /  0.0mm
07:44 32.9 °F /  0.5 °C 27.3 °F /  -2.6 °C 30in /  1015.1hPa SSW 6.3mph /  10.1km/h 7.4mph /  11.9km/h 80% 0in /  0.0mm
07:49 32.7 °F /  0.4 °C 27.5 °F /  -2.5 °C 30in /  1015.1hPa WSW 5.4mph /  8.7km/h 7.6mph /  12.2km/h 81% 0in /  0.0mm
07:54 32.7 °F /  0.4 °C 27.9 °F /  -2.3 °C 30in /  1015.1hPa WNW 6.3mph /  10.1km/h 7.8mph /  12.6km/h 82% 0in /  0.0mm
07:59 32.7 °F /  0.4 °C 28 °F /  -2.2 °C 30in /  1015.1hPa West 6.5mph /  10.5km/h 7.8mph /  12.6km/h 83% 0in /  0.0mm
08:04 32.5 °F /  0.3 °C 27.9 °F /  -2.3 °C 30in /  1015.1hPa WSW 4mph /  6.4km/h 7.4mph /  11.9km/h 83% 0in /  0.0mm
08:09 32.5 °F /  0.3 °C 27.9 °F /  -2.3 °C 30in /  1015.1hPa West 2.7mph /  4.3km/h 7.4mph /  11.9km/h 83% 0in /  0.0mm
08:14 32.4 °F /  0.2 °C 28 °F /  -2.2 °C 30in /  1015.1hPa WSW 4.3mph /  6.9km/h 6.5mph /  10.5km/h 84% 0in /  0.0mm
08:19 32.4 °F /  0.2 °C 28 °F /  -2.2 °C 30in /  1015.1hPa SSW 5.4mph /  8.7km/h 6.5mph /  10.5km/h 84% 0in /  0.0mm
08:24 32.2 °F /  0.1 °C 27.9 °F /  -2.3 °C 30in /  1015.1hPa West 7.4mph /  11.9km/h 7.4mph /  11.9km/h 84% 0in /  0.0mm
08:29 32.4 °F /  0.2 °C 28.2 °F /  -2.1 °C 30in /  1015.1hPa West 7.6mph /  12.2km/h 8.9mph /  14.3km/h 85% 0in /  0.0mm
08:34 32.5 °F /  0.3 °C 28.8 °F /  -1.8 °C 30in /  1015.1hPa West 6.5mph /  10.5km/h 10.3mph /  16.6km/h 86% 0in /  0.0mm
08:39 32.7 °F /  0.4 °C 29.3 °F /  -1.5 °C 30in /  1015.1hPa WSW 8.7mph /  14.0km/h 10.3mph /  16.6km/h 87% 0in /  0.0mm
08:44 32.9 °F /  0.5 °C 29.7 °F /  -1.3 °C 30in /  1015.1hPa WSW 7.6mph /  12.2km/h 10.1mph /  16.3km/h 88% 0in /  0.0mm
08:49 32.9 °F /  0.5 °C 29.7 °F /  -1.3 °C 30in /  1015.1hPa WSW 5.4mph /  8.7km/h 9.4mph /  15.1km/h 88% 0in /  0.0mm
08:54 32.9 °F /  0.5 °C 29.7 °F /  -1.3 °C 30in /  1016.1hPa WSW 7.8mph /  12.6km/h 8.5mph /  13.7km/h 88% 0in /  0.0mm
08:59 33.1 °F /  0.6 °C 29.8 °F /  -1.2 °C 30in /  1016.1hPa WSW 7.4mph /  11.9km/h 8.7mph /  14.0km/h 88% 0in /  0.0mm
09:04 33.3 °F /  0.7 °C 30.4 °F /  -0.9 °C 30in /  1016.1hPa West 7.4mph /  11.9km/h 10.5mph /  16.9km/h 89% 0in /  0.0mm
09:09 33.4 °F /  0.8 °C 30.7 °F /  -0.7 °C 30in /  1015.1hPa West 8.5mph /  13.7km/h 10.5mph /  16.9km/h 90% 0in /  0.0mm
09:14 33.6 °F /  0.9 °C 30.9 °F /  -0.6 °C 30in /  1015.1hPa West 6.3mph /  10.1km/h 9.6mph /  15.4km/h 90% 0in /  0.0mm
09:19 33.8 °F /  1.0 °C 31.1 °F /  -0.5 °C 30in /  1015.1hPa West 10.3mph /  16.6km/h 10.3mph /  16.6km/h 90% 0in /  0.0mm
09:24 34 °F /  1.1 °C 31.6 °F /  -0.2 °C 30in /  1015.1hPa West 11mph /  17.7km/h 11mph /  17.7km/h 91% 0in /  0.0mm
09:29 34.2 °F /  1.2 °C 31.8 °F /  -0.1 °C 30in /  1015.1hPa West 8.9mph /  14.3km/h 11mph /  17.7km/h 91% 0in /  0.0mm
09:34 34.3 °F /  1.3 °C 31.8 °F /  -0.1 °C 30in /  1015.1hPa NW 6.3mph /  10.1km/h 11mph /  17.7km/h 91% 0in /  0.0mm
09:39 34.5 °F /  1.4 °C 32.2 °F /  0.1 °C 30in /  1016.1hPa SSW 5.6mph /  9.0km/h 11mph /  17.7km/h 91% 0in /  0.0mm
09:44 34.5 °F /  1.4 °C 32.4 °F /  0.2 °C 30in /  1016.1hPa NW 8.7mph /  14.0km/h 10.5mph /  16.9km/h 91% 0in /  0.0mm
09:49 34.5 °F /  1.4 °C 32 °F /  0.0 °C 30in /  1016.1hPa West 4mph /  6.4km/h 10.3mph /  16.6km/h 90% 0in /  0.0mm
09:54 34.5 °F /  1.4 °C 32 °F /  0.0 °C 30in /  1016.1hPa West 6.3mph /  10.1km/h 9.4mph /  15.1km/h 90% 0in /  0.0mm
09:59 34.5 °F /  1.4 °C 32 °F /  0.0 °C 30in /  1016.1hPa West 4.9mph /  7.9km/h 9.4mph /  15.1km/h 90% 0in /  0.0mm
10:04 34.5 °F /  1.4 °C 32 °F /  0.0 °C 30in /  1016.1hPa West 4mph /  6.4km/h 8.9mph /  14.3km/h 90% 0in /  0.0mm
10:09 34.5 °F /  1.4 °C 32 °F /  0.0 °C 30in /  1016.1hPa West 7.8mph /  12.6km/h 8.9mph /  14.3km/h 90% 0in /  0.0mm
10:14 34.9 °F /  1.6 °C 32.2 °F /  0.1 °C 30in /  1016.1hPa West 8.1mph /  13.0km/h 8.5mph /  13.7km/h 90% 0in /  0.0mm
10:19 34.9 °F /  1.6 °C 32.2 °F /  0.1 °C 30in /  1016.1hPa WSW 7.8mph /  12.6km/h 9.6mph /  15.4km/h 90% 0in /  0.0mm
10:24 34.9 °F /  1.6 °C 32.5 °F /  0.3 °C 30in /  1016.1hPa WSW 7.2mph /  11.6km/h 9.6mph /  15.4km/h 91% 0in /  0.0mm
10:29 35.1 °F /  1.7 °C 32.4 °F /  0.2 °C 30in /  1016.1hPa WSW 6.7mph /  10.8km/h 9.6mph /  15.4km/h 90% 0in /  0.0mm
10:34 35.1 °F /  1.7 °C 32.5 °F /  0.3 °C 30in /  1016.1hPa West 8.1mph /  13.0km/h 9.8mph /  15.8km/h 91% 0in /  0.0mm
10:40 35.2 °F /  1.8 °C 32.7 °F /  0.4 °C 30in /  1016.1hPa West 7.2mph /  11.6km/h 9.8mph /  15.8km/h 91% 0in /  0.0mm
10:45 35.4 °F /  1.9 °C 33.1 °F /  0.6 °C 30in /  1016.1hPa WSW 5.6mph /  9.0km/h 8.7mph /  14.0km/h 91% 0in /  0.0mm
10:50 35.4 °F /  1.9 °C 33.1 °F /  0.6 °C 30in /  1016.1hPa WSW 6mph /  9.7km/h 8.5mph /  13.7km/h 91% 0in /  0.0mm
10:54 35.4 °F /  1.9 °C 33.1 °F /  0.6 °C 30in /  1016.1hPa WSW 8.5mph /  13.7km/h 8.7mph /  14.0km/h 91% 0in /  0.0mm
11:00 35.4 °F /  1.9 °C 33.1 °F /  0.6 °C 30in /  1016.1hPa WSW 6mph /  9.7km/h 12.3mph /  19.8km/h 91% 0in /  0.0mm
11:04 35.4 °F /  1.9 °C 33.3 °F /  0.7 °C 30in /  1016.1hPa West 6.5mph /  10.5km/h 12.3mph /  19.8km/h 91% 0in /  0.0mm
11:09 35.8 °F /  2.1 °C 33.3 °F /  0.7 °C 30in /  1016.1hPa West 7.4mph /  11.9km/h 10.7mph /  17.2km/h 91% 0in /  0.0mm
11:14 36 °F /  2.2 °C 33.4 °F /  0.8 °C 30in /  1016.1hPa West 7.8mph /  12.6km/h 10.7mph /  17.2km/h 91% 0in /  0.0mm
11:20 36 °F /  2.2 °C 33.4 °F /  0.8 °C 30in /  1016.1hPa West 6.3mph /  10.1km/h 10.7mph /  17.2km/h 91% 0in /  0.0mm
11:24 36.1 °F /  2.3 °C 33.6 °F /  0.9 °C 30in /  1016.1hPa West 10.1mph /  16.3km/h 11.2mph /  18.0km/h 91% 0in /  0.0mm
11:29 36.1 °F /  2.3 °C 34 °F /  1.1 °C 30in /  1016.1hPa West 8.1mph /  13.0km/h 11.2mph /  18.0km/h 91% 0in /  0.0mm
11:34 36.3 °F /  2.4 °C 34 °F /  1.1 °C 30in /  1016.1hPa West 7.4mph /  11.9km/h 10.3mph /  16.6km/h 91% 0in /  0.0mm
11:40 36.3 °F /  2.4 °C 34 °F /  1.1 °C 30in /  1016.1hPa WSW 7.2mph /  11.6km/h 10.3mph /  16.6km/h 91% 0in /  0.0mm
11:45 36.1 °F /  2.3 °C 34 °F /  1.1 °C 30in /  1016.1hPa West 5.6mph /  9.0km/h 10.3mph /  16.6km/h 91% 0in /  0.0mm
11:50 36.1 °F /  2.3 °C 34 °F /  1.1 °C 30in /  1016.1hPa West 8.5mph /  13.7km/h 10.1mph /  16.3km/h 91% 0in /  0.0mm
11:55 36.3 °F /  2.4 °C 34 °F /  1.1 °C 30in /  1016.1hPa WSW 6.5mph /  10.5km/h 8.7mph /  14.0km/h 91% 0in /  0.0mm
12:00 36.7 °F /  2.6 °C 34.5 °F /  1.4 °C 30in /  1016.1hPa WSW 6mph /  9.7km/h 8.7mph /  14.0km/h 92% 0in /  0.0mm
12:05 36.7 °F /  2.6 °C 34.5 °F /  1.4 °C 30in /  1016.1hPa WSW 9.8mph /  15.8km/h 10.1mph /  16.3km/h 92% 0in /  0.0mm
12:10 36.9 °F /  2.7 °C 34.9 °F /  1.6 °C 30in /  1016.1hPa West 8.5mph /  13.7km/h 10.1mph /  16.3km/h 93% 0in /  0.0mm
12:15 37 °F /  2.8 °C 35.2 °F /  1.8 °C 30in /  1016.1hPa West 7.4mph /  11.9km/h 10.1mph /  16.3km/h 93% 0in /  0.0mm
12:20 37.2 °F /  2.9 °C 35.4 °F /  1.9 °C 30in /  1016.1hPa West 9.6mph /  15.4km/h 11mph /  17.7km/h 93% 0in /  0.0mm
12:25 37.6 °F /  3.1 °C 35.6 °F /  2.0 °C 30in /  1016.1hPa West 4.9mph /  7.9km/h 11mph /  17.7km/h 93% 0in /  0.0mm
12:30 38.7 °F /  3.7 °C 37 °F /  2.8 °C 30in /  1016.1hPa West 8.7mph /  14.0km/h 10.1mph /  16.3km/h 94% 0in /  0.0mm
12:35 39.2 °F /  4.0 °C 37.8 °F /  3.2 °C 30in /  1016.1hPa West 8.5mph /  13.7km/h 10.1mph /  16.3km/h 94% 0in /  0.0mm
12:40 39.7 °F /  4.3 °C 38.1 °F /  3.4 °C 30in /  1016.1hPa West 7.6mph /  12.2km/h 10.5mph /  16.9km/h 94% 0in /  0.0mm
12:45 39.7 °F /  4.3 °C 37.9 °F /  3.3 °C 30in /  1016.1hPa WSW 8.7mph /  14.0km/h 12.3mph /  19.8km/h 93% 0in /  0.0mm
12:50 39.6 °F /  4.2 °C 37.6 °F /  3.1 °C 30in /  1016.1hPa West 3.1mph /  5.0km/h 12.3mph /  19.8km/h 92% 0in /  0.0mm
12:55 39.6 °F /  4.2 °C 37.2 °F /  2.9 °C 30in /  1016.1hPa WNW 4.3mph /  6.9km/h 10.7mph /  17.2km/h 91% 0in /  0.0mm
13:00 39.9 °F /  4.4 °C 37.6 °F /  3.1 °C 30in /  1016.1hPa NE 4.9mph /  7.9km/h 8.5mph /  13.7km/h 91% 0in /  0.0mm
13:05 40.3 °F /  4.6 °C 37.9 °F /  3.3 °C 30in /  1016.1hPa NNE 4.9mph /  7.9km/h 8.5mph /  13.7km/h 91% 0in /  0.0mm
13:10 41 °F /  5.0 °C 38.3 °F /  3.5 °C 30in /  1015.1hPa West 5.8mph /  9.3km/h 8.5mph /  13.7km/h 90% 0in /  0.0mm
13:15 41 °F /  5.0 °C 37.4 °F /  3.0 °C 30in /  1015.1hPa WNW 5.4mph /  8.7km/h 8.5mph /  13.7km/h 87% 0in /  0.0mm
13:20 41.2 °F /  5.1 °C 36.7 °F /  2.6 °C 30in /  1015.1hPa NNW 7.8mph /  12.6km/h 10.3mph /  16.6km/h 84% 0in /  0.0mm
13:25 41.7 °F /  5.4 °C 36.9 °F /  2.7 °C 30in /  1016.1hPa NNW 4.3mph /  6.9km/h 13.2mph /  21.2km/h 83% 0in /  0.0mm
13:30 41.7 °F /  5.4 °C 35.2 °F /  1.8 °C 30in /  1016.1hPa West 8.1mph /  13.0km/h 13.2mph /  21.2km/h 78% 0in /  0.0mm
13:35 41.9 °F /  5.5 °C 35.2 °F /  1.8 °C 30in /  1016.1hPa NW 8.1mph /  13.0km/h 10.7mph /  17.2km/h 77% 0in /  0.0mm
13:40 41.4 °F /  5.2 °C 34 °F /  1.1 °C 30in /  1016.1hPa North 3.1mph /  5.0km/h 10.7mph /  17.2km/h 75% 0in /  0.0mm
13:45 41 °F /  5.0 °C 33.6 °F /  0.9 °C 30in /  1016.1hPa NW 3.8mph /  6.1km/h 11mph /  17.7km/h 75% 0in /  0.0mm
13:50 41.9 °F /  5.5 °C 34.5 °F /  1.4 °C 30in /  1016.1hPa ENE 6.3mph /  10.1km/h 11mph /  17.7km/h 75% 0in /  0.0mm
13:55 42.4 °F /  5.8 °C 34.7 °F /  1.5 °C 30in /  1016.1hPa West 5.4mph /  8.7km/h 13.2mph /  21.2km/h 74% 0in /  0.0mm
14:00 42.8 °F /  6.0 °C 34.7 °F /  1.5 °C 30in /  1016.1hPa WNW 3.1mph /  5.0km/h 13.2mph /  21.2km/h 73% 0in /  0.0mm
14:05 42.3 °F /  5.7 °C 33.1 °F /  0.6 °C 30in /  1016.1hPa WNW 5.8mph /  9.3km/h 10.7mph /  17.2km/h 70% 0in /  0.0mm
14:10 41.7 °F /  5.4 °C 32.5 °F /  0.3 °C 30in /  1016.1hPa NNW 6mph /  9.7km/h 10.7mph /  17.2km/h 70% 0in /  0.0mm
14:15 41.5 °F /  5.3 °C 32.7 °F /  0.4 °C 30in /  1016.1hPa NNE 4.3mph /  6.9km/h 10.3mph /  16.6km/h 71% 0in /  0.0mm
14:20 41.5 °F /  5.3 °C 33.3 °F /  0.7 °C 30in /  1016.1hPa West 7.2mph /  11.6km/h 9.8mph /  15.8km/h 72% 0in /  0.0mm
14:25 41.4 °F /  5.2 °C 33.1 °F /  0.6 °C 30in /  1016.8hPa NW 4.7mph /  7.6km/h 9.8mph /  15.8km/h 72% 0in /  0.0mm
14:30 41.4 °F /  5.2 °C 33.3 °F /  0.7 °C 30in /  1016.8hPa North 4.7mph /  7.6km/h 9.8mph /  15.8km/h 73% 0in /  0.0mm
14:35 41.4 °F /  5.2 °C 33.3 °F /  0.7 °C 30in /  1016.8hPa NNW 3.4mph /  5.5km/h 9.4mph /  15.1km/h 73% 0in /  0.0mm
14:40 41.4 °F /  5.2 °C 33.6 °F /  0.9 °C 30in /  1016.1hPa NNW 7.8mph /  12.6km/h 9.6mph /  15.4km/h 74% 0in /  0.0mm
14:46 41.4 °F /  5.2 °C 33.6 °F /  0.9 °C 30in /  1016.1hPa NNW 8.7mph /  14.0km/h 9.8mph /  15.8km/h 74% 0in /  0.0mm
14:51 41.4 °F /  5.2 °C 33.6 °F /  0.9 °C 30in /  1016.1hPa North 3.6mph /  5.8km/h 12.5mph /  20.1km/h 74% 0in /  0.0mm
14:56 41.7 °F /  5.4 °C 34 °F /  1.1 °C 30in /  1016.8hPa NNW 4.9mph /  7.9km/h 12.5mph /  20.1km/h 74% 0in /  0.0mm
15:01 42.3 °F /  5.7 °C 34.2 °F /  1.2 °C 30in /  1016.8hPa East 3.1mph /  5.0km/h 11.9mph /  19.1km/h 73% 0in /  0.0mm
15:06 42.1 °F /  5.6 °C 34 °F /  1.1 °C 30in /  1016.8hPa North 2.9mph /  4.7km/h 11.9mph /  19.1km/h 73% 0in /  0.0mm
15:11 41.9 °F /  5.5 °C 33.4 °F /  0.8 °C 30in /  1016.1hPa WNW 2.9mph /  4.7km/h 10.7mph /  17.2km/h 72% 0in /  0.0mm
15:16 41.7 °F /  5.4 °C 33.3 °F /  0.7 °C 30in /  1016.1hPa West 3.6mph /  5.8km/h 10.7mph /  17.2km/h 72% 0in /  0.0mm
15:21 41.5 °F /  5.3 °C 32.7 °F /  0.4 °C 30in /  1016.1hPa West 3.1mph /  5.0km/h 11mph /  17.7km/h 71% 0in /  0.0mm
15:26 41.4 °F /  5.2 °C 33.1 °F /  0.6 °C 30in /  1016.8hPa WNW 7.2mph /  11.6km/h 11mph /  17.7km/h 72% 0in /  0.0mm
15:31 41.4 °F /  5.2 °C 33.3 °F /  0.7 °C 30in /  1016.8hPa West 4.7mph /  7.6km/h 14.3mph /  23.0km/h 73% 0in /  0.0mm
15:36 41.9 °F /  5.5 °C 34 °F /  1.1 °C 30in /  1016.8hPa NNW 2.7mph /  4.3km/h 14.3mph /  23.0km/h 73% 0in /  0.0mm
15:41 42.1 °F /  5.6 °C 34 °F /  1.1 °C 30in /  1016.8hPa NNW 12.5mph /  20.1km/h 12.5mph /  20.1km/h 73% 0in /  0.0mm
15:46 42.1 °F /  5.6 °C 34 °F /  1.1 °C 30in /  1016.8hPa NE 7.2mph /  11.6km/h 12.5mph /  20.1km/h 73% 0in /  0.0mm
15:51 42.1 °F /  5.6 °C 33.6 °F /  0.9 °C 30in /  1016.8hPa North 5.8mph /  9.3km/h 8.5mph /  13.7km/h 72% 0in /  0.0mm
15:56 41.9 °F /  5.5 °C 34 °F /  1.1 °C 30in /  1016.8hPa NNW 10.3mph /  16.6km/h 10.3mph /  16.6km/h 73% 0in /  0.0mm
16:01 41.9 °F /  5.5 °C 33.4 °F /  0.8 °C 30in /  1016.8hPa NNW 7.6mph /  12.2km/h 10.5mph /  16.9km/h 72% 0in /  0.0mm
16:06 41.9 °F /  5.5 °C 33.4 °F /  0.8 °C 30in /  1016.8hPa North 4mph /  6.4km/h 10.5mph /  16.9km/h 72% 0in /  0.0mm
16:11 41.9 °F /  5.5 °C 33.3 °F /  0.7 °C 30in /  1016.8hPa WNW 5.6mph /  9.0km/h 10.3mph /  16.6km/h 71% 0in /  0.0mm
16:16 41.4 °F /  5.2 °C 32.4 °F /  0.2 °C 30in /  1016.8hPa WNW 4mph /  6.4km/h 12.5mph /  20.1km/h 70% 0in /  0.0mm
16:21 41 °F /  5.0 °C 32.4 °F /  0.2 °C 30in /  1016.8hPa NNW 4.3mph /  6.9km/h 12.5mph /  20.1km/h 71% 0in /  0.0mm
16:26 40.8 °F /  4.9 °C 32.5 °F /  0.3 °C 30in /  1016.1hPa NW 2.9mph /  4.7km/h 8.1mph /  13.0km/h 72% 0in /  0.0mm
16:31 40.6 °F /  4.8 °C 32.4 °F /  0.2 °C 30in /  1016.1hPa WNW 3.1mph /  5.0km/h 8.1mph /  13.0km/h 72% 0in /  0.0mm
16:36 40.5 °F /  4.7 °C 32.5 °F /  0.3 °C 30in /  1016.1hPa NW 5.8mph /  9.3km/h 6.3mph /  10.1km/h 73% 0in /  0.0mm
16:41 40.3 °F /  4.6 °C 32.4 °F /  0.2 °C 30in /  1016.8hPa Calm   6.3mph /  10.1km/h 73% 0in /  0.0mm
16:42 40.3 °F /  4.6 °C 32.7 °F /  0.4 °C 30in /  1016.8hPa NNW 1.3mph /  2.1km/h 6.3mph /  10.1km/h 74% 0in /  0.0mm
16:47 40.3 °F /  4.6 °C 32.7 °F /  0.4 °C 30in /  1016.8hPa NNW 10.1mph /  16.3km/h 10.1mph /  16.3km/h 74% 0in /  0.0mm
16:52 40.3 °F /  4.6 °C 32.7 °F /  0.4 °C 30in /  1016.8hPa NW 3.6mph /  5.8km/h 10.1mph /  16.3km/h 74% 0in /  0.0mm
16:57 40.1 °F /  4.5 °C 32.5 °F /  0.3 °C 30in /  1016.8hPa NNW 5.4mph /  8.7km/h 8.7mph /  14.0km/h 74% 0in /  0.0mm
17:02 39.9 °F /  4.4 °C 32.4 °F /  0.2 °C 30in /  1016.8hPa NNW 4mph /  6.4km/h 8.7mph /  14.0km/h 74% 0in /  0.0mm
17:07 39.7 °F /  4.3 °C 32.2 °F /  0.1 °C 30in /  1016.8hPa North 2mph /  3.2km/h 8.5mph /  13.7km/h 74% 0in /  0.0mm
17:12 39.6 °F /  4.2 °C 32 °F /  0.0 °C 30in /  1016.8hPa NNW 5.6mph /  9.0km/h 8.5mph /  13.7km/h 74% 0in /  0.0mm
17:17 39.2 °F /  4.0 °C 31.6 °F /  -0.2 °C 30in /  1016.8hPa NW 2.7mph /  4.3km/h 8.7mph /  14.0km/h 74% 0in /  0.0mm
17:22 39 °F /  3.9 °C 31.5 °F /  -0.3 °C 30in /  1016.8hPa NNW 5.8mph /  9.3km/h 8.7mph /  14.0km/h 74% 0in /  0.0mm
17:27 39 °F /  3.9 °C 31.5 °F /  -0.3 °C 30in /  1016.8hPa WNW 2.9mph /  4.7km/h 8.7mph /  14.0km/h 74% 0in /  0.0mm
17:32 38.8 °F /  3.8 °C 31.6 °F /  -0.2 °C 30in /  1016.8hPa WNW 5.4mph /  8.7km/h 8.7mph /  14.0km/h 75% 0in /  0.0mm
17:37 38.7 °F /  3.7 °C 31.5 °F /  -0.3 °C 30in /  1016.8hPa WSW 4mph /  6.4km/h 7.2mph /  11.6km/h 75% 0in /  0.0mm
17:42 38.5 °F /  3.6 °C 30.9 °F /  -0.6 °C 30in /  1016.8hPa WNW 0.9mph /  1.4km/h 7.2mph /  11.6km/h 74% 0in /  0.0mm
17:47 38.5 °F /  3.6 °C 31.3 °F /  -0.4 °C 30in /  1016.8hPa WNW 5.8mph /  9.3km/h 6.3mph /  10.1km/h 75% 0in /  0.0mm
17:53 38.5 °F /  3.6 °C 31.3 °F /  -0.4 °C 30.1in /  1018.2hPa Calm   6.3mph /  10.1km/h 75% 0in /  0.0mm
17:58 38.5 °F /  3.6 °C 31.3 °F /  -0.4 °C 30.1in /  1018.2hPa Calm   5.8mph /  9.3km/h 75% 0in /  0.0mm
18:03 38.5 °F /  3.6 °C 31.3 °F /  -0.4 °C 30.1in /  1018.2hPa West 2mph /  3.2km/h 6.5mph /  10.5km/h 75% 0in /  0.0mm
18:08 38.5 °F /  3.6 °C 31.3 °F /  -0.4 °C 30.1in /  1018.2hPa Calm   6.5mph /  10.5km/h 75% 0in /  0.0mm
18:13 38.5 °F /  3.6 °C 31.1 °F /  -0.5 °C 30.1in /  1018.2hPa Calm   4mph /  6.4km/h 75% 0in /  0.0mm
18:18 38.1 °F /  3.4 °C 30.9 °F /  -0.6 °C 30.1in /  1018.2hPa West 2mph /  3.2km/h 6.5mph /  10.5km/h 75% 0in /  0.0mm
18:23 38.1 °F /  3.4 °C 31.3 °F /  -0.4 °C 30.1in /  1018.2hPa WNW 2mph /  3.2km/h 9.8mph /  15.8km/h 76% 0in /  0.0mm
18:28 38.5 °F /  3.6 °C 31.5 °F /  -0.3 °C 30.1in /  1018.2hPa WNW 3.6mph /  5.8km/h 9.8mph /  15.8km/h 76% 0in /  0.0mm
18:33 38.5 °F /  3.6 °C 31.5 °F /  -0.3 °C 30.1in /  1018.2hPa NW 3.1mph /  5.0km/h 8.1mph /  13.0km/h 76% 0in /  0.0mm
18:38 38.1 °F /  3.4 °C 31.3 °F /  -0.4 °C 30.1in /  1018.2hPa NNE 3.4mph /  5.5km/h 6.5mph /  10.5km/h 76% 0in /  0.0mm
18:43 37.9 °F /  3.3 °C 31.1 °F /  -0.5 °C 30.1in /  1018.2hPa Calm   6.5mph /  10.5km/h 76% 0in /  0.0mm
18:48 37.6 °F /  3.1 °C 31.1 °F /  -0.5 °C 30.1in /  1018.2hPa North 5.6mph /  9.0km/h 5.6mph /  9.0km/h 77% 0in /  0.0mm
18:53 37.6 °F /  3.1 °C 31.5 °F /  -0.3 °C 30.1in /  1018.2hPa NE 6.3mph /  10.1km/h 8.5mph /  13.7km/h 79% 0in /  0.0mm
18:58 37.6 °F /  3.1 °C 32.2 °F /  0.1 °C 30.1in /  1018.2hPa North 4.3mph /  6.9km/h 9.4mph /  15.1km/h 81% 0in /  0.0mm
19:03 37.2 °F /  2.9 °C 32 °F /  0.0 °C 30.1in /  1018.2hPa Calm   9.4mph /  15.1km/h 81% 0in /  0.0mm
19:08 37 °F /  2.8 °C 32.2 °F /  0.1 °C 30.1in /  1018.2hPa Calm   6.3mph /  10.1km/h 82% 0in /  0.0mm
19:13 36.9 °F /  2.7 °C 32 °F /  0.0 °C 30.1in /  1018.2hPa NW 3.4mph /  5.5km/h 3.4mph /  5.5km/h 82% 0in /  0.0mm
19:18 36.9 °F /  2.7 °C 32 °F /  0.0 °C 30.1in /  1018.2hPa Calm   3.4mph /  5.5km/h 82% 0in /  0.0mm
19:23 36.9 °F /  2.7 °C 32.4 °F /  0.2 °C 30.1in /  1018.8hPa NNE 1.3mph /  2.1km/h 2.7mph /  4.3km/h 83% 0in /  0.0mm
19:28 36.9 °F /  2.7 °C 32.4 °F /  0.2 °C 30.1in /  1018.8hPa North 1.6mph /  2.6km/h 5.4mph /  8.7km/h 83% 0in /  0.0mm
19:33 36.9 °F /  2.7 °C 32.5 °F /  0.3 °C 30.1in /  1018.8hPa WNW 1.3mph /  2.1km/h 5.4mph /  8.7km/h 84% 0in /  0.0mm
19:38 36.9 °F /  2.7 °C 32.4 °F /  0.2 °C 30.1in /  1018.8hPa Calm   5.4mph /  8.7km/h 84% 0in /  0.0mm
19:43 36.7 °F /  2.6 °C 31.8 °F /  -0.1 °C 30.1in /  1018.8hPa Calm   2.5mph /  4.0km/h 83% 0in /  0.0mm
19:48 36.3 °F /  2.4 °C 31.6 °F /  -0.2 °C 30.1in /  1018.8hPa Calm   2.5mph /  4.0km/h 83% 0in /  0.0mm
19:53 36.1 °F /  2.3 °C 31.6 °F /  -0.2 °C 30.1in /  1018.8hPa Calm   2.5mph /  4.0km/h 83% 0in /  0.0mm
19:58 36.1 °F /  2.3 °C 31.5 °F /  -0.3 °C 30.1in /  1018.8hPa Calm     83% 0in /  0.0mm
20:04 36 °F /  2.2 °C 31.3 °F /  -0.4 °C 30.1in /  1018.8hPa Calm     83% 0in /  0.0mm
20:09 35.4 °F /  1.9 °C 30.9 °F /  -0.6 °C 30.1in /  1018.8hPa Calm     83% 0in /  0.0mm
20:14 35.2 °F /  1.8 °C 30.6 °F /  -0.8 °C 30.1in /  1018.8hPa Calm     83% 0in /  0.0mm
20:19 34.9 °F /  1.6 °C 30.6 °F /  -0.8 °C 30.1in /  1018.8hPa Calm     84% 0in /  0.0mm
20:24 34.9 °F /  1.6 °C 30.6 °F /  -0.8 °C 30.1in /  1018.8hPa Calm     84% 0in /  0.0mm
20:29 34.9 °F /  1.6 °C 30.6 °F /  -0.8 °C 30.1in /  1018.8hPa Calm   3.4mph /  5.5km/h 84% 0in /  0.0mm
20:34 34.5 °F /  1.4 °C 30 °F /  -1.1 °C 30.1in /  1018.8hPa Calm   3.4mph /  5.5km/h 84% 0in /  0.0mm
20:39 34.5 °F /  1.4 °C 30.4 °F /  -0.9 °C 30.1in /  1018.8hPa Calm   3.4mph /  5.5km/h 85% 0in /  0.0mm
20:44 34.3 °F /  1.3 °C 30.4 °F /  -0.9 °C 30.1in /  1018.8hPa Calm   3.6mph /  5.8km/h 85% 0in /  0.0mm
20:49 34.5 °F /  1.4 °C 30.4 °F /  -0.9 °C 30.1in /  1018.8hPa WSW 4mph /  6.4km/h 4mph /  6.4km/h 85% 0in /  0.0mm
20:54 35.1 °F /  1.7 °C 31.3 °F /  -0.4 °C 30.1in /  1018.8hPa West 1.6mph /  2.6km/h 5.6mph /  9.0km/h 86% 0in /  0.0mm
20:59 35.4 °F /  1.9 °C 31.6 °F /  -0.2 °C 30.1in /  1018.8hPa ESE 4mph /  6.4km/h 5.8mph /  9.3km/h 86% 0in /  0.0mm
21:04 35.4 °F /  1.9 °C 31.5 °F /  -0.3 °C 30.1in /  1018.8hPa NW 1.3mph /  2.1km/h 6.9mph /  11.1km/h 85% 0in /  0.0mm
21:09 36 °F /  2.2 °C 31.5 °F /  -0.3 °C 30.1in /  1018.8hPa West 5.8mph /  9.3km/h 6.9mph /  11.1km/h 84% 0in /  0.0mm
21:14 36 °F /  2.2 °C 31.3 °F /  -0.4 °C 30.1in /  1018.8hPa Calm   7.2mph /  11.6km/h 83% 0in /  0.0mm
21:19 36.1 °F /  2.3 °C 31.5 °F /  -0.3 °C 30.1in /  1018.8hPa WNW 2.9mph /  4.7km/h 7.6mph /  12.2km/h 83% 0in /  0.0mm
21:24 36.1 °F /  2.3 °C 31.1 °F /  -0.5 °C 30.1in /  1018.8hPa NNW 2mph /  3.2km/h 7.6mph /  12.2km/h 82% 0in /  0.0mm
21:29 36.1 °F /  2.3 °C 31.3 °F /  -0.4 °C 30.1in /  1018.8hPa WSW 2.5mph /  4.0km/h 6.3mph /  10.1km/h 82% 0in /  0.0mm
21:34 36.3 °F /  2.4 °C 31.1 °F /  -0.5 °C 30.1in /  1018.8hPa North 3.6mph /  5.8km/h 6.3mph /  10.1km/h 81% 0in /  0.0mm
21:39 36.1 °F /  2.3 °C 30.7 °F /  -0.7 °C 30.1in /  1018.2hPa WNW 0.9mph /  1.4km/h 4.9mph /  7.9km/h 80% 0in /  0.0mm
21:44 36.3 °F /  2.4 °C 30.7 °F /  -0.7 °C 30.1in /  1018.2hPa West 3.6mph /  5.8km/h 4.9mph /  7.9km/h 80% 0in /  0.0mm
21:49 36.7 °F /  2.6 °C 30.9 °F /  -0.6 °C 30.1in /  1018.2hPa West 2.5mph /  4.0km/h 4.3mph /  6.9km/h 80% 0in /  0.0mm
21:54 36.7 °F /  2.6 °C 30.9 °F /  -0.6 °C 30.1in /  1018.2hPa WNW 3.4mph /  5.5km/h 5.4mph /  8.7km/h 80% 0in /  0.0mm
21:59 36.7 °F /  2.6 °C 30.7 °F /  -0.7 °C 30.1in /  1018.2hPa WNW 4.9mph /  7.9km/h 6.9mph /  11.1km/h 79% 0in /  0.0mm
22:04 36.7 °F /  2.6 °C 30.7 °F /  -0.7 °C 30.1in /  1018.2hPa WNW 0.9mph /  1.4km/h 6.9mph /  11.1km/h 79% 0in /  0.0mm
22:09 36.7 °F /  2.6 °C 30.7 °F /  -0.7 °C 30.1in /  1018.8hPa SW 3.1mph /  5.0km/h 7.2mph /  11.6km/h 79% 0in /  0.0mm
22:14 36.7 °F /  2.6 °C 30.7 °F /  -0.7 °C 30.1in /  1018.8hPa West 3.1mph /  5.0km/h 7.2mph /  11.6km/h 79% 0in /  0.0mm
22:19 36.9 °F /  2.7 °C 30.9 °F /  -0.6 °C 30.1in /  1018.8hPa WNW 5.6mph /  9.0km/h 6.5mph /  10.5km/h 79% 0in /  0.0mm
22:24 36.9 °F /  2.7 °C 30.9 °F /  -0.6 °C 30.1in /  1018.8hPa SW 5.6mph /  9.0km/h 6.7mph /  10.8km/h 79% 0in /  0.0mm
22:29 36 °F /  2.2 °C 29.7 °F /  -1.3 °C 30.1in /  1018.8hPa WSW 5.6mph /  9.0km/h 8.5mph /  13.7km/h 78% 0in /  0.0mm
22:34 35.2 °F /  1.8 °C 28.9 °F /  -1.7 °C 30.1in /  1018.8hPa West 3.4mph /  5.5km/h 8.5mph /  13.7km/h 78% 0in /  0.0mm
22:39 34.5 °F /  1.4 °C 28.6 °F /  -1.9 °C 30.1in /  1018.8hPa WSW 6mph /  9.7km/h 7.8mph /  12.6km/h 78% 0in /  0.0mm
22:44 34.3 °F /  1.3 °C 28.6 °F /  -1.9 °C 30.1in /  1018.8hPa WSW 5.8mph /  9.3km/h 7.6mph /  12.2km/h 79% 0in /  0.0mm
22:49 34.3 °F /  1.3 °C 28.6 °F /  -1.9 °C 30.1in /  1018.8hPa West 4.9mph /  7.9km/h 6.5mph /  10.5km/h 79% 0in /  0.0mm
22:54 34.3 °F /  1.3 °C 29.1 °F /  -1.6 °C 30.1in /  1018.8hPa West 2.9mph /  4.7km/h 6.3mph /  10.1km/h 81% 0in /  0.0mm
22:59 34.3 °F /  1.3 °C 29.1 °F /  -1.6 °C 30.1in /  1018.8hPa West 4.3mph /  6.9km/h 6.3mph /  10.1km/h 81% 0in /  0.0mm
23:04 34.2 °F /  1.2 °C 29.1 °F /  -1.6 °C 30.1in /  1018.8hPa WSW 5.8mph /  9.3km/h 6mph /  9.7km/h 82% 0in /  0.0mm
23:09 34.2 °F /  1.2 °C 29.5 °F /  -1.4 °C 30.1in /  1018.8hPa West 4.3mph /  6.9km/h 5.8mph /  9.3km/h 83% 0in /  0.0mm
23:10 34.2 °F /  1.2 °C 29.5 °F /  -1.4 °C 30.1in /  1018.8hPa West 3.4mph /  5.5km/h 5.8mph /  9.3km/h 83% 0in /  0.0mm
23:15 34.2 °F /  1.2 °C 29.5 °F /  -1.4 °C 30.1in /  1018.8hPa WSW 1.1mph /  1.8km/h 4.9mph /  7.9km/h 83% 0in /  0.0mm
23:20 34 °F /  1.1 °C 29.3 °F /  -1.5 °C 30.1in /  1018.8hPa Calm   2.9mph /  4.7km/h 83% 0in /  0.0mm
23:25 33.6 °F /  0.9 °C 29.3 °F /  -1.5 °C 30.1in /  1018.8hPa Calm   1.1mph /  1.8km/h 84% 0in /  0.0mm
23:30 33.3 °F /  0.7 °C 28.9 °F /  -1.7 °C 30.1in /  1018.8hPa Calm     84% 0in /  0.0mm
23:35 33.1 °F /  0.6 °C 28.8 °F /  -1.8 °C 30.1in /  1018.8hPa WSW 1.6mph /  2.6km/h 2.7mph /  4.3km/h 84% 0in /  0.0mm
23:40 32.7 °F /  0.4 °C 28.4 °F /  -2.0 °C 30.1in /  1018.2hPa Calm   2.7mph /  4.3km/h 84% 0in /  0.0mm
23:45 32.7 °F /  0.4 °C 28.8 °F /  -1.8 °C 30.1in /  1018.2hPa West 1.6mph /  2.6km/h 2.7mph /  4.3km/h 85% 0in /  0.0mm
23:50 33.1 °F /  0.6 °C 29.3 °F /  -1.5 °C 30.1in /  1018.2hPa East 1.6mph /  2.6km/h 4.9mph /  7.9km/h 86% 0in /  0.0mm
23:55 33.3 °F /  0.7 °C 30 °F /  -1.1 °C 30.1in /  1018.8hPa Calm   5.8mph /  9.3km/h 88% 0in /  0.0mm
Données Historique de Météo Turbie

Mise a jour : 20/05/2018 19:22:12
Généré par Cumulus 1.9.4 (1099)